NCAR-RAP Real-Time Weather Data

Output produced by METARs form (12 May 2021  12:36 UTC)
found at http://weather.rap.ucar.edu/surface/
 
KAMA 121153Z 35003KT 8SM FEW100 BKN120 06/04 A3033 RMK AO2 SLP262 60000 70002 T00560044 10078 20050 53004
KAMA 121053Z 36005KT 9SM SCT120 06/04 A3032 RMK AO2 SLP260 T00560044
KAMA 120953Z 35007KT 10SM SCT085 BKN110 07/04 A3031 RMK AO2 SLP257 T00720044
KAMA 120853Z 33003KT 10SM FEW055 SCT075 07/04 A3031 RMK AO2 RAB34E53 SLP256 P0000 60000 T00720044 53003
KAMA 120753Z 35004KT 10SM BKN110 07/04 A3030 RMK AO2 SLP253 T00720044
KAMA 120653Z 01006KT 10SM FEW042 BKN090 07/04 A3030 RMK AO2 SLP254 T00670039
KAMA 120553Z 02009KT 10SM OVC044 08/04 A3030 RMK AO2 SLP252 T00780039 10089 20078 400940072 50016
KAMA 120453Z 02010KT 10SM SCT036 OVC046 08/04 A3030 RMK AO2 SLP253 T00780044
KAMA 120432Z 03011KT 10SM OVC032 08/04 A3030 RMK AO2 T00780044
KAMA 120353Z 03013KT 10SM OVC029 08/04 A3028 RMK AO2 SLP243 T00830044
KAMA 120253Z 03012KT 10SM OVC024 08/04 A3025 RMK AO2 SLP231 T00830039 53022
KAMA 120153Z 05013KT 10SM OVC021 09/04 A3020 RMK AO2 SLP214 T00890044
KAMA 120053Z 05014KT 10SM OVC018 09/05 A3018 RMK AO2 SLP209 T00890050
KAMA 120006Z 05013KT 10SM OVC015 09/06 A3017 RMK AO2 T00890056
KAMA 112353Z 04012KT 10SM OVC014 09/06 A3017 RMK AO2 SLP207 T00890056 10089 20072 53008
KAMA 112253Z 04012KT 10SM OVC012 08/06 A3016 RMK AO2 SLP202 T00830056
KAMA 112216Z 04013KT 10SM OVC011 09/06 A3016 RMK AO2 T00890061
KAMA 112153Z 05011KT 10SM OVC007 08/06 A3015 RMK AO2 SLP198 T00830061